WMKK/KUL METAR and TAF weather

Enter ICAO airport designator
Station Type Date Time Source
WMKK METAR 2019/02/22 22:00 UTC NOAA

WMKK 222200Z 05006KT 360V120 9999 FEW030 SCT140 BKN280 26/22 Q1009 NOSIG


Station Type Date Time Source
WMKK Decoded METAR 2019/02/22 22:00 UTC NOAA

Sepang/KL International Airport, Malaysia (WMKK) 02-44N 101-42E 22M
Feb 22, 2019 - 05:00 PM EST / 2019.02.22 2200 UTC
Wind: from the NE (050 degrees) at 7 MPH (6 KT) (direction variable):0
Visibility: greater than 7 mile(s):0
Sky conditions: mostly cloudy
Temperature: 78 F (26 C)
Dew Point: 71 F (22 C)
Relative Humidity: 78%
Pressure (altimeter): 29.80 in. Hg (1009 hPa)
ob: WMKK 222200Z 05006KT 360V120 9999 FEW030 SCT140 BKN280 26/22 Q1009 NOSIG
cycle: 22

Station Type Date Time Source
WMKK TAF 2019/02/22 18:10 UTC NOAA

TAF WMKK 221700Z 2218/2400 VRB02KT 9999 FEW030
BECMG 2219/2221 FEW018
BECMG 2300/2302 07008KT
BECMG 2306/2307 22005KT SCT018
BECMG 2314/2315 VRB03KT FEW030


Example: see airport list